createdAt,value
2019-03-25T00:01:52.071Z,99750.30
2019-03-25T00:04:22.327Z,99755.18
2019-03-25T00:06:53.246Z,99752.73
2019-03-25T00:09:23.212Z,99749.98
2019-03-25T00:11:53.430Z,99754.63
2019-03-25T00:14:23.498Z,99755.36
2019-03-25T00:16:53.502Z,99752.39
2019-03-25T00:19:23.659Z,99750.77
2019-03-25T00:21:53.673Z,99751.16
2019-03-25T00:24:23.670Z,99752.78
2019-03-25T00:26:53.874Z,99748.85
2019-03-25T00:29:23.943Z,99743.75
2019-03-25T00:31:53.949Z,99745.38
2019-03-25T00:34:24.660Z,99747.60
2019-03-25T00:36:54.698Z,99748.79
2019-03-25T00:39:24.758Z,99751.28
2019-03-25T00:41:54.832Z,99744.52
2019-03-25T00:44:24.795Z,99742.33
2019-03-25T00:46:54.906Z,99748.82
2019-03-25T00:49:25.020Z,99744.17
2019-03-25T00:51:55.104Z,99739.47
2019-03-25T00:54:26.408Z,99741.17
2019-03-25T00:56:56.537Z,99733.87
2019-03-25T00:59:26.630Z,99741.41
2019-03-25T01:01:56.737Z,99732.22
2019-03-25T01:04:26.973Z,99729.20
2019-03-25T01:06:57.070Z,99727.70
2019-03-25T01:09:27.186Z,99720.10
2019-03-25T01:11:57.348Z,99708.47
2019-03-25T01:14:27.982Z,99710.30
2019-03-25T01:16:58.176Z,99700.06
2019-03-25T01:19:28.461Z,99706.50
2019-03-25T01:21:59.163Z,99708.52
2019-03-25T01:24:29.832Z,99692.36
2019-03-25T01:26:59.946Z,99693.55
2019-03-25T01:29:30.032Z,99693.67
2019-03-25T01:32:00.126Z,99685.80
2019-03-25T01:34:30.652Z,99680.47
2019-03-25T01:37:00.979Z,99677.59
2019-03-25T01:39:31.339Z,99677.94
2019-03-25T01:42:01.402Z,99677.53
2019-03-25T01:44:31.504Z,99679.95
2019-03-25T01:47:01.493Z,99677.66
2019-03-25T01:49:31.525Z,99674.30
2019-03-25T01:52:01.541Z,99677.47
2019-03-25T01:54:32.607Z,99673.92
2019-03-25T01:57:02.644Z,99673.24
2019-03-25T01:59:32.994Z,99670.53
2019-03-25T02:02:03.099Z,99668.66
2019-03-25T02:04:33.365Z,99669.70
2019-03-25T02:07:03.407Z,99664.58
2019-03-25T02:09:33.363Z,99664.08
2019-03-25T02:12:03.764Z,99669.52
2019-03-25T02:14:33.818Z,99676.23
2019-03-25T02:17:03.813Z,99666.83
2019-03-25T02:19:33.828Z,99661.52
2019-03-25T02:22:03.855Z,99658.52
2019-03-25T02:24:33.864Z,99658.80
2019-03-25T02:27:04.117Z,99654.65
2019-03-25T02:29:34.194Z,99644.67
2019-03-25T02:32:04.224Z,99643.44
2019-03-25T02:34:34.294Z,99636.94
2019-03-25T02:37:04.353Z,99639.79
2019-03-25T02:39:34.799Z,99638.71
2019-03-25T02:42:05.344Z,99637.45
2019-03-25T02:44:35.778Z,99640.52
2019-03-25T02:47:05.919Z,99638.13
2019-03-25T02:49:36.039Z,99641.28
2019-03-25T02:52:06.099Z,99630.95
2019-03-25T02:54:36.048Z,99638.58
2019-03-25T02:57:06.173Z,99635.16
2019-03-25T02:59:36.336Z,99631.84
2019-03-25T03:02:06.329Z,99634.35
2019-03-25T03:04:36.465Z,99642.71
2019-03-25T03:07:06.485Z,99641.35
2019-03-25T03:09:36.419Z,99647.86
2019-03-25T03:12:06.629Z,99651.64
2019-03-25T03:14:36.701Z,99648.05
2019-03-25T03:17:06.696Z,99654.07
2019-03-25T03:19:36.717Z,99655.83
2019-03-25T03:22:06.915Z,99653.83
2019-03-25T03:24:37.004Z,99643.25
2019-03-25T03:27:07.186Z,99640.03
2019-03-25T03:29:37.167Z,99643.20
2019-03-25T03:32:07.183Z,99635.34
2019-03-25T03:34:37.457Z,99638.02
2019-03-25T03:37:07.475Z,99640.58
2019-03-25T03:39:37.725Z,99638.72
2019-03-25T03:42:07.911Z,99637.41
2019-03-25T03:44:39.053Z,99638.27
2019-03-25T03:47:09.046Z,99634.48
2019-03-25T03:49:39.309Z,99628.91
2019-03-25T03:52:09.595Z,99628.16
2019-03-25T03:54:40.846Z,99627.11
2019-03-25T03:57:11.862Z,99619.25
2019-03-25T03:59:43.257Z,99618.05
2019-03-25T04:02:13.305Z,99613.22
2019-03-25T04:04:43.335Z,99609.44
2019-03-25T04:07:13.390Z,99605.02
2019-03-25T04:09:44.045Z,99606.43
2019-03-25T04:12:14.339Z,99603.45
2019-03-25T04:14:44.301Z,99603.20
2019-03-25T04:17:14.322Z,99603.35
2019-03-25T04:19:44.423Z,99598.27
2019-03-25T04:22:14.424Z,99586.91
2019-03-25T04:24:44.586Z,99584.65
2019-03-25T04:27:14.632Z,99584.65
2019-03-25T04:29:44.592Z,99597.27
2019-03-25T04:32:15.101Z,99592.23
2019-03-25T04:34:45.685Z,99592.39
2019-03-25T04:37:15.697Z,99587.50
2019-03-25T04:39:45.654Z,99595.30
2019-03-25T04:42:16.306Z,99588.81
2019-03-25T04:44:47.771Z,99583.53
2019-03-25T04:47:17.817Z,99595.20
2019-03-25T04:49:47.826Z,99591.98
2019-03-25T04:52:17.933Z,99597.97
2019-03-25T04:54:47.999Z,99603.25
2019-03-25T04:57:18.055Z,99607.78
2019-03-25T04:59:48.550Z,99602.75
2019-03-25T05:02:18.574Z,99595.66
2019-03-25T05:04:49.044Z,99605.61
2019-03-25T05:07:21.594Z,99599.66
2019-03-25T05:09:51.643Z,99607.35
2019-03-25T05:12:21.790Z,99599.28
2019-03-25T05:14:51.883Z,99604.08
2019-03-25T05:17:21.947Z,99602.77
2019-03-25T05:19:52.670Z,99602.48
2019-03-25T05:22:22.743Z,99603.29
2019-03-25T05:24:52.801Z,99602.30
2019-03-25T05:27:22.860Z,99598.94
2019-03-25T05:29:53.340Z,99597.79
2019-03-25T05:32:23.347Z,99599.79
2019-03-25T05:34:53.253Z,99599.66
2019-03-25T05:37:23.360Z,99597.73
2019-03-25T05:39:53.426Z,99598.10
2019-03-25T05:42:23.402Z,99591.03
2019-03-25T05:44:53.677Z,99591.66
2019-03-25T05:47:23.630Z,99590.22
2019-03-25T05:49:53.577Z,99589.11
2019-03-25T05:52:24.634Z,99584.88
2019-03-25T05:54:55.289Z,99583.45
2019-03-25T05:57:25.267Z,99586.48
2019-03-25T05:59:55.287Z,99581.41
2019-03-25T06:02:25.393Z,99582.00
2019-03-25T06:04:55.477Z,99583.45
2019-03-25T06:07:25.996Z,99575.88
2019-03-25T06:09:57.065Z,99574.35
2019-03-25T06:12:27.194Z,99573.77
2019-03-25T06:14:57.302Z,99566.47
2019-03-25T06:17:27.371Z,99565.28
2019-03-25T06:19:57.332Z,99566.77
2019-03-25T06:22:27.464Z,99569.12
2019-03-25T06:24:57.414Z,99561.51
2019-03-25T06:27:27.474Z,99560.27
2019-03-25T06:29:57.600Z,99561.80
2019-03-25T06:32:27.534Z,99559.80
2019-03-25T06:34:57.468Z,99558.44
2019-03-25T06:37:27.725Z,99559.84
2019-03-25T06:39:57.780Z,99562.34
2019-03-25T06:42:27.745Z,99559.27
2019-03-25T06:44:57.931Z,99557.98
2019-03-25T06:47:27.994Z,99551.48
2019-03-25T06:49:58.078Z,99548.56
2019-03-25T06:52:28.611Z,99546.00
2019-03-25T06:54:58.660Z,99539.20
2019-03-25T06:57:28.731Z,99541.33
2019-03-25T06:59:58.854Z,99546.21
2019-03-25T07:02:28.810Z,99547.34
2019-03-25T07:04:58.741Z,99546.19
2019-03-25T07:07:28.868Z,99542.24
2019-03-25T07:10:01.354Z,99533.48
2019-03-25T07:12:31.289Z,99541.59
2019-03-25T07:15:01.293Z,99532.84
2019-03-25T07:17:31.346Z,99525.53
2019-03-25T07:20:01.394Z,99518.52
2019-03-25T07:22:31.465Z,99521.42
2019-03-25T07:25:01.448Z,99514.79
2019-03-25T07:27:36.601Z,99506.36
2019-03-25T07:30:03.419Z,99501.48
2019-03-25T07:32:33.344Z,99501.27
2019-03-25T07:35:03.327Z,99492.30
2019-03-25T07:37:34.094Z,99486.16
2019-03-25T07:40:04.671Z,99480.80
2019-03-25T07:42:34.627Z,99472.76
2019-03-25T07:45:05.008Z,99468.11
2019-03-25T07:47:34.963Z,99465.58
2019-03-25T07:50:05.086Z,99458.53
2019-03-25T07:52:35.198Z,99450.47
2019-03-25T07:55:05.593Z,99447.45
2019-03-25T07:57:35.551Z,99444.22
2019-03-25T08:00:13.414Z,99443.39
2019-03-25T08:02:38.744Z,99432.74
2019-03-25T08:05:08.912Z,99427.93
2019-03-25T08:07:38.951Z,99424.20
2019-03-25T08:10:10.423Z,99419.70
2019-03-25T08:12:40.555Z,99412.56
2019-03-25T08:15:11.053Z,99402.89
2019-03-25T08:17:41.008Z,99400.84
2019-03-25T08:20:12.512Z,99395.48
2019-03-25T08:22:42.759Z,99387.55
2019-03-25T08:25:12.923Z,99391.61
2019-03-25T08:27:42.982Z,99391.59
2019-03-25T08:30:13.679Z,99386.41
2019-03-25T08:32:43.713Z,99387.80
2019-03-25T08:35:14.205Z,99387.22
2019-03-25T08:37:44.303Z,99380.22
2019-03-25T08:40:14.771Z,99376.27
2019-03-25T08:42:44.710Z,99371.55
2019-03-25T08:45:15.039Z,99367.84
2019-03-25T08:47:45.104Z,99369.31
2019-03-25T08:50:15.458Z,99373.42
2019-03-25T08:52:45.611Z,99367.86
2019-03-25T08:55:15.617Z,99363.20
2019-03-25T08:57:45.653Z,99358.01
2019-03-25T09:00:16.182Z,99354.40
2019-03-25T09:02:46.138Z,99351.59
2019-03-25T09:05:16.509Z,99347.69
2019-03-25T09:07:46.574Z,99342.57
2019-03-25T09:10:16.542Z,99331.50
2019-03-25T09:12:46.617Z,99334.72
2019-03-25T09:15:17.241Z,99328.67
2019-03-25T09:17:47.165Z,99319.38
2019-03-25T09:20:17.431Z,99315.70
2019-03-25T09:22:48.228Z,99314.14
2019-03-25T09:25:18.588Z,99310.20
2019-03-25T09:27:48.541Z,99296.12
2019-03-25T09:30:54.576Z,99299.70
2019-03-25T09:33:24.650Z,99295.61
2019-03-25T09:35:54.870Z,99292.37
2019-03-25T09:38:24.896Z,99283.96
2019-03-25T09:40:54.832Z,99273.77
2019-03-25T09:43:24.903Z,99273.67
2019-03-25T09:45:54.896Z,99266.50
2019-03-25T09:48:24.940Z,99263.05
2019-03-25T09:50:55.009Z,99255.38
2019-03-25T09:53:25.035Z,99250.30
2019-03-25T09:55:55.115Z,99245.81
2019-03-25T09:58:35.680Z,99232.14
2019-03-25T10:00:57.191Z,99230.55
2019-03-25T10:03:27.429Z,99221.37
2019-03-25T10:05:57.732Z,99219.17
2019-03-25T10:08:28.858Z,99209.27
2019-03-25T10:10:58.926Z,99207.77
2019-03-25T10:13:28.900Z,99200.70
2019-03-25T10:15:58.889Z,99193.02
2019-03-25T10:18:28.983Z,99194.47
2019-03-25T10:20:59.033Z,99190.73
2019-03-25T10:23:29.056Z,99190.87
2019-03-25T10:25:59.115Z,99184.61
2019-03-25T10:28:32.011Z,99172.53
2019-03-25T10:31:02.015Z,99168.64
2019-03-25T10:33:32.093Z,99163.98
2019-03-25T10:36:02.166Z,99164.45
2019-03-25T10:38:32.141Z,99149.78
2019-03-25T10:41:02.133Z,99143.27
2019-03-25T10:43:32.183Z,99133.09
2019-03-25T10:46:02.475Z,99129.41
2019-03-25T10:48:33.389Z,99131.25
2019-03-25T10:51:03.343Z,99125.75
2019-03-25T10:53:33.431Z,99115.42
2019-03-25T10:56:04.292Z,99107.80
2019-03-25T10:58:34.233Z,99105.12
2019-03-25T11:01:04.356Z,99100.56
2019-03-25T11:03:34.404Z,99089.42
2019-03-25T11:06:04.378Z,99088.23
2019-03-25T11:08:35.350Z,99076.11
2019-03-25T11:11:06.420Z,99073.52
2019-03-25T11:13:36.584Z,99073.09
2019-03-25T11:16:06.593Z,99067.11
2019-03-25T11:18:36.655Z,99065.24
2019-03-25T11:21:06.702Z,99064.09
2019-03-25T11:23:36.723Z,99057.30
2019-03-25T11:26:06.674Z,99038.30
2019-03-25T11:28:36.793Z,99036.42
2019-03-25T11:31:07.000Z,99025.78
2019-03-25T11:33:37.041Z,99013.53
2019-03-25T11:36:07.199Z,99012.48
2019-03-25T11:38:37.310Z,99003.53
2019-03-25T11:41:07.475Z,99000.45
2019-03-25T11:43:37.473Z,98993.07
2019-03-25T11:46:07.778Z,98991.98
2019-03-25T11:48:37.732Z,98982.58
2019-03-25T11:51:07.686Z,98979.37
2019-03-25T11:53:38.218Z,98971.39
2019-03-25T11:56:08.346Z,98965.95
2019-03-25T11:58:38.283Z,98956.75
2019-03-25T12:01:08.276Z,98960.86
2019-03-25T12:03:38.744Z,98943.94
2019-03-25T12:06:08.885Z,98943.94
2019-03-25T12:08:39.046Z,98925.59
2019-03-25T12:11:09.172Z,98918.07
2019-03-25T12:13:39.211Z,98918.07
2019-03-25T12:16:09.318Z,98913.29
2019-03-25T12:18:39.266Z,98905.61
2019-03-25T12:21:09.278Z,98898.16
2019-03-25T12:23:40.331Z,98896.73
2019-03-25T12:26:10.367Z,98889.02
2019-03-25T12:28:40.319Z,98884.54
2019-03-25T12:31:10.444Z,98873.23
2019-03-25T12:33:40.490Z,98872.36
2019-03-25T12:36:10.619Z,98872.31
2019-03-25T12:38:41.659Z,98857.11
2019-03-25T12:41:11.593Z,98850.72
2019-03-25T12:43:41.671Z,98849.22
2019-03-25T12:46:11.760Z,98843.10
2019-03-25T12:48:41.854Z,98837.75
2019-03-25T12:51:11.816Z,98840.00
2019-03-25T12:53:42.829Z,98832.67
2019-03-25T12:56:12.876Z,98831.56
2019-03-25T12:58:42.906Z,98827.52
2019-03-25T13:01:12.867Z,98823.04
2019-03-25T13:03:42.945Z,98812.34
2019-03-25T13:06:12.875Z,98804.53
2019-03-25T13:08:42.955Z,98804.77
2019-03-25T13:11:13.010Z,98801.75
2019-03-25T13:13:42.944Z,98790.43
2019-03-25T13:16:12.920Z,98784.44
2019-03-25T13:18:42.987Z,98783.47
2019-03-25T13:21:13.046Z,98783.94
2019-03-25T13:23:43.061Z,98782.09
2019-03-25T13:26:12.998Z,98770.85
2019-03-25T13:28:43.039Z,98772.70
2019-03-25T13:31:13.122Z,98764.11
2019-03-25T13:33:43.108Z,98766.13
2019-03-25T13:36:13.157Z,98756.23
2019-03-25T13:38:43.393Z,98756.61
2019-03-25T13:41:13.462Z,98751.61
2019-03-25T13:43:43.893Z,98751.47
2019-03-25T13:46:14.213Z,98751.66
2019-03-25T13:48:44.123Z,98749.43
2019-03-25T13:51:14.062Z,98752.72
2019-03-25T13:53:44.351Z,98734.61
2019-03-25T13:56:14.454Z,98733.53
2019-03-25T13:58:44.818Z,98726.00
2019-03-25T14:01:14.810Z,98728.52
2019-03-25T14:03:44.871Z,98721.14
2019-03-25T14:06:14.923Z,98717.63
2019-03-25T14:08:45.048Z,98717.14
2019-03-25T14:11:14.994Z,98716.98
2019-03-25T14:13:49.351Z,98716.62
2019-03-25T14:16:16.893Z,98712.45
2019-03-25T14:18:46.832Z,98710.94
2019-03-25T14:21:16.759Z,98706.22
2019-03-25T14:23:46.855Z,98702.38
2019-03-25T14:26:16.787Z,98700.86
2019-03-25T14:28:46.830Z,98697.05
2019-03-25T14:31:16.924Z,98697.54
2019-03-25T14:33:46.890Z,98695.16
2019-03-25T14:36:16.815Z,98690.45
2019-03-25T14:38:46.930Z,98690.48
2019-03-25T14:41:16.973Z,98683.62
2019-03-25T14:43:46.935Z,98684.96
2019-03-25T14:46:16.895Z,98684.11
2019-03-25T14:48:46.936Z,98676.05
2019-03-25T14:51:16.976Z,98675.34
2019-03-25T14:53:46.942Z,98672.34
2019-03-25T14:56:17.136Z,98668.85
2019-03-25T14:58:47.211Z,98667.98
2019-03-25T15:01:17.300Z,98665.47
2019-03-25T15:03:47.253Z,98657.58
2019-03-25T15:06:17.308Z,98658.75
2019-03-25T15:08:47.342Z,98659.26
2019-03-25T15:11:17.345Z,98657.90
2019-03-25T15:13:47.782Z,98651.20
2019-03-25T15:16:17.980Z,98650.87
2019-03-25T15:18:47.907Z,98651.86
2019-03-25T15:21:17.866Z,98648.00
2019-03-25T15:23:47.967Z,98646.34
2019-03-25T15:26:18.030Z,98646.52
2019-03-25T15:28:47.958Z,98642.97
2019-03-25T15:31:17.987Z,98639.59
2019-03-25T15:33:48.054Z,98637.59
2019-03-25T15:36:18.067Z,98634.58
2019-03-25T15:38:48.034Z,98635.91
2019-03-25T15:41:17.987Z,98640.47
2019-03-25T15:43:48.023Z,98637.59
2019-03-25T15:46:18.000Z,98635.41
2019-03-25T15:48:48.034Z,98636.59
2019-03-25T15:51:18.119Z,98636.08
2019-03-25T15:53:48.118Z,98637.44
2019-03-25T15:56:18.051Z,98633.23
2019-03-25T15:58:48.094Z,98637.77
2019-03-25T16:01:18.343Z,98630.06
2019-03-25T16:03:48.340Z,98627.38
2019-03-25T16:06:18.290Z,98620.33
2019-03-25T16:08:48.372Z,98626.69
2019-03-25T16:11:18.452Z,98626.35
2019-03-25T16:13:48.407Z,98623.00
2019-03-25T16:16:18.399Z,98619.32
2019-03-25T16:18:48.450Z,98616.12
2019-03-25T16:21:18.525Z,98619.45
2019-03-25T16:23:48.513Z,98617.95
2019-03-25T16:26:18.569Z,98616.55
2019-03-25T16:28:48.664Z,98627.78
2019-03-25T16:31:18.682Z,98632.92
2019-03-25T16:33:48.723Z,98634.93
2019-03-25T16:36:18.768Z,98632.00
2019-03-25T16:38:48.944Z,98626.09
2019-03-25T16:41:19.075Z,98637.27
2019-03-25T16:43:49.116Z,98630.09
2019-03-25T16:46:19.209Z,98631.70
2019-03-25T16:48:49.142Z,98629.05
2019-03-25T16:51:19.089Z,98633.50
2019-03-25T16:53:51.232Z,98630.58
2019-03-25T16:56:21.301Z,98635.05
2019-03-25T16:58:51.355Z,98634.22
2019-03-25T17:01:21.346Z,98639.17
2019-03-25T17:03:54.085Z,98632.48
2019-03-25T17:06:24.212Z,98646.73
2019-03-25T17:08:55.524Z,98646.73
2019-03-25T17:11:26.572Z,98646.39
2019-03-25T17:13:56.519Z,98645.14
2019-03-25T17:16:28.515Z,98642.24
2019-03-25T17:19:02.149Z,98648.35
2019-03-25T17:21:33.198Z,98652.75
2019-03-25T17:24:03.526Z,98653.93
2019-03-25T17:26:42.027Z,98658.46
2019-03-25T17:29:05.316Z,98662.73
2019-03-25T17:31:35.596Z,98660.77
2019-03-25T17:34:06.595Z,98661.41
2019-03-25T17:36:38.165Z,98659.05
2019-03-25T17:39:10.844Z,98661.09
2019-03-25T17:41:40.912Z,98656.61
2019-03-25T17:44:10.942Z,98658.73
2019-03-25T17:46:42.266Z,98666.64
2019-03-25T17:49:13.422Z,98668.41
2019-03-25T17:51:44.110Z,98669.56
2019-03-25T17:54:15.032Z,98674.55
2019-03-25T17:56:44.985Z,98680.78
2019-03-25T17:59:26.699Z,98683.08
2019-03-25T18:01:56.756Z,98675.72
2019-03-25T18:04:26.717Z,98686.84
2019-03-25T18:06:56.692Z,98685.03
2019-03-25T18:09:26.813Z,98690.12
2019-03-25T18:11:56.882Z,98697.09
2019-03-25T18:14:27.681Z,98705.57
2019-03-25T18:16:57.650Z,98701.22
2019-03-25T18:19:27.682Z,98705.18
2019-03-25T18:21:57.807Z,98708.47
2019-03-25T18:24:27.760Z,98715.78
2019-03-25T18:26:57.944Z,98711.20
2019-03-25T18:29:32.918Z,98714.48
2019-03-25T18:32:04.117Z,98718.21
2019-03-25T18:34:35.692Z,98710.50
2019-03-25T18:37:05.940Z,98720.80
2019-03-25T18:39:35.871Z,98720.00
2019-03-25T18:42:05.812Z,98719.53
2019-03-25T18:44:36.084Z,98718.84
2019-03-25T18:47:06.145Z,98726.58
2019-03-25T18:49:36.100Z,98728.22
2019-03-25T18:52:06.087Z,98735.28
2019-03-25T18:54:36.131Z,98731.92
2019-03-25T18:57:06.273Z,98731.34
2019-03-25T18:59:36.279Z,98739.63
2019-03-25T19:02:06.217Z,98741.50
2019-03-25T19:04:36.258Z,98735.83
2019-03-25T19:07:08.205Z,98740.52
2019-03-25T19:09:38.229Z,98741.59
2019-03-25T19:12:08.308Z,98751.06
2019-03-25T19:14:38.437Z,98751.06
2019-03-25T19:17:08.394Z,98754.33
2019-03-25T19:19:38.482Z,98755.69
2019-03-25T19:22:08.641Z,98761.46
2019-03-25T19:24:38.604Z,98764.25
2019-03-25T19:27:08.593Z,98772.47
2019-03-25T19:29:40.161Z,98764.17
2019-03-25T19:32:10.607Z,98765.63
2019-03-25T19:34:41.038Z,98768.73
2019-03-25T19:37:11.581Z,98764.28
2019-03-25T19:39:42.135Z,98771.28
2019-03-25T19:42:12.909Z,98767.80
2019-03-25T19:44:43.851Z,98763.56
2019-03-25T19:47:15.060Z,98762.23
2019-03-25T19:49:45.352Z,98757.77
2019-03-25T19:52:15.376Z,98762.12
2019-03-25T19:54:46.009Z,98759.58
2019-03-25T19:57:16.086Z,98761.62
2019-03-25T19:59:46.123Z,98763.91
2019-03-25T20:02:19.224Z,98768.38
2019-03-25T20:04:48.220Z,98764.14
2019-03-25T20:07:18.267Z,98770.66
2019-03-25T20:09:48.353Z,98776.14
2019-03-25T20:12:18.283Z,98783.10
2019-03-25T20:14:48.762Z,98780.48
2019-03-25T20:17:18.858Z,98785.91
2019-03-25T20:19:48.795Z,98789.73
2019-03-25T20:22:18.961Z,98788.41
2019-03-25T20:24:49.029Z,98788.16
2019-03-25T20:27:18.957Z,98793.47
2019-03-25T20:29:49.082Z,98795.19
2019-03-25T20:32:30.987Z,98793.83
2019-03-25T20:34:50.906Z,98795.05
2019-03-25T20:37:21.041Z,98796.13
2019-03-25T20:39:51.103Z,98785.36
2019-03-25T20:42:21.162Z,98792.16
2019-03-25T20:44:51.305Z,98788.36
2019-03-25T20:47:21.262Z,98794.99
2019-03-25T20:49:51.790Z,98796.80
2019-03-25T20:52:24.339Z,98806.23
2019-03-25T20:54:53.532Z,98806.23
2019-03-25T20:57:23.479Z,98804.87
2019-03-25T20:59:54.036Z,98805.78
2019-03-25T21:02:24.101Z,98806.63
2019-03-25T21:04:54.051Z,98809.39
2019-03-25T21:07:24.238Z,98807.41
2019-03-25T21:09:54.206Z,98808.38
2019-03-25T21:12:24.135Z,98812.46
2019-03-25T21:14:54.308Z,98808.38
2019-03-25T21:17:24.348Z,98815.77
2019-03-25T21:19:54.370Z,98815.58
2019-03-25T21:22:24.392Z,98816.80
2019-03-25T21:24:54.435Z,98819.08
2019-03-25T21:27:24.545Z,98816.89
2019-03-25T21:29:54.711Z,98820.30
2019-03-25T21:32:24.694Z,98817.17
2019-03-25T21:34:54.732Z,98827.25
2019-03-25T21:37:24.810Z,98824.06
2019-03-25T21:39:54.862Z,98822.60
2019-03-25T21:42:24.836Z,98820.91
2019-03-25T21:44:55.567Z,98817.20
2019-03-25T21:47:25.639Z,98814.05
2019-03-25T21:49:55.693Z,98814.31
2019-03-25T21:52:26.772Z,98816.75
2019-03-25T21:54:56.765Z,98810.40
2019-03-25T21:57:27.088Z,98808.12
2019-03-25T21:59:57.375Z,98804.22
2019-03-25T22:02:27.494Z,98801.73
2019-03-25T22:04:57.467Z,98802.47
2019-03-25T22:07:27.807Z,98798.98
2019-03-25T22:09:57.888Z,98800.67
2019-03-25T22:12:28.382Z,98809.30
2019-03-25T22:14:58.412Z,98809.67
2019-03-25T22:17:28.351Z,98809.23
2019-03-25T22:19:58.422Z,98808.38
2019-03-25T22:22:28.513Z,98806.91
2019-03-25T22:24:58.457Z,98809.92
2019-03-25T22:27:28.531Z,98808.45
2019-03-25T22:29:58.692Z,98805.99
2019-03-25T22:32:29.657Z,98809.04
2019-03-25T22:35:00.487Z,98808.27
2019-03-25T22:37:30.584Z,98800.19
2019-03-25T22:40:00.521Z,98792.25
2019-03-25T22:42:30.472Z,98791.22
2019-03-25T22:45:00.564Z,98798.98
2019-03-25T22:47:30.614Z,98802.32
2019-03-25T22:50:00.548Z,98803.27
2019-03-25T22:52:30.564Z,98802.66
2019-03-25T22:55:00.632Z,98807.23
2019-03-25T22:57:30.984Z,98807.25
2019-03-25T23:00:01.275Z,98821.31
2019-03-25T23:02:31.218Z,98819.34
2019-03-25T23:05:02.367Z,98816.41
2019-03-25T23:07:32.619Z,98817.17
2019-03-25T23:10:02.566Z,98817.44
2019-03-25T23:12:32.526Z,98820.20
2019-03-25T23:15:02.627Z,98823.38
2019-03-25T23:17:32.702Z,98825.49
2019-03-25T23:20:03.197Z,98824.02
2019-03-25T23:22:33.202Z,98823.38
2019-03-25T23:25:03.259Z,98827.00
2019-03-25T23:27:33.747Z,98825.01
2019-03-25T23:30:04.837Z,98828.05
2019-03-25T23:32:34.853Z,98829.55
2019-03-25T23:35:05.003Z,98823.42
2019-03-25T23:37:35.098Z,98824.94
2019-03-25T23:40:05.963Z,98830.31
2019-03-25T23:42:37.504Z,98833.11
2019-03-25T23:45:07.796Z,98833.03
2019-03-25T23:47:37.730Z,98836.72
2019-03-25T23:50:08.636Z,98832.76
2019-03-25T23:52:38.744Z,98832.83
2019-03-25T23:55:08.724Z,98829.55
2019-03-25T23:57:38.671Z,98832.30
